Time;durP1;ratioP1;P1;durP2;ratioP2;P2;SDS_P1;SDS_P2;PMS_P1;PMS_P2;Temp;Humidity;BMP_temperature;BMP_pressure;BME280_temperature;BME280_humidity;BME280_pressure;Samples;Min_cycle;Max_cycle;Signal;HPM_P1;HPM_P2
2022/04/22 00:01:10;;;;;;;11.35;4.53;;;;;;;;;;5010909;28;20018;-88
2022/04/22 00:03:35;;;;;;;9.35;4.03;;;;;;;;;;4997580;28;20084;-88
2022/04/22 00:06:01;;;;;;;6.85;3.97;;;;;;;;;;4998118;28;20029;-87
2022/04/22 00:08:26;;;;;;;13.32;4.70;;;;;;;;;;5002174;28;20033;-88
2022/04/22 00:13:35;;;;;;;13.35;4.25;;;;;;;;;;5001792;28;20034;-88
2022/04/22 00:16:01;;;;;;;10.57;4.90;;;;;;;;;;4994996;28;20489;-88
2022/04/22 00:18:26;;;;;;;9.45;4.55;;;;;;;;;;4991349;28;20018;-87
2022/04/22 00:20:52;;;;;;;13.43;5.00;;;;;;;;;;4995741;28;20053;-88
2022/04/22 00:23:17;;;;;;;10.50;4.53;;;;;;;;;;4991448;28;20022;-88
2022/04/22 00:25:42;;;;;;;10.77;5.25;;;;;;;;;;4991275;28;20495;-88
2022/04/22 00:28:07;;;;;;;7.50;4.15;;;;;;;;;;4987294;28;20019;-88
2022/04/22 00:30:33;;;;;;;8.48;4.70;;;;;;;;;;4993191;28;20375;-88
2022/04/22 00:32:58;;;;;;;9.30;5.50;;;;;;;;;;4992753;28;20022;-88
2022/04/22 00:35:23;;;;;;;7.47;4.90;;;;;;;;;;4998968;28;20462;-90
2022/04/22 00:37:49;;;;;;;10.32;4.88;;;;;;;;;;4989410;28;20034;-87
2022/04/22 00:40:15;;;;;;;14.88;5.13;;;;;;;;;;4991343;28;20033;-87
2022/04/22 00:42:40;;;;;;;8.40;5.18;;;;;;;;;;4989186;28;20046;-88
2022/04/22 00:45:06;;;;;;;7.47;4.63;;;;;;;;;;4989290;28;20034;-88
2022/04/22 00:47:31;;;;;;;9.40;4.90;;;;;;;;;;4994438;28;20053;-88
2022/04/22 00:49:56;;;;;;;8.32;4.10;;;;;;;;;;4989441;28;20391;-88
2022/04/22 00:52:21;;;;;;;7.97;4.88;;;;;;;;;;4991945;28;20022;-88
2022/04/22 00:54:47;;;;;;;11.65;4.45;;;;;;;;;;4993579;28;20026;-87
2022/04/22 00:57:13;;;;;;;10.10;4.90;;;;;;;;;;4991790;28;20037;-87
2022/04/22 00:59:42;;;;;;;9.90;5.30;;;;;;;;;;4989822;28;20014;-87
2022/04/22 01:02:07;;;;;;;10.52;5.28;;;;;;;;;;4992949;28;20026;-87
2022/04/22 01:10:01;;;;;;;10.05;5.07;;;;;;;;;;4986529;28;20032;-87
2022/04/22 01:12:28;;;;;;;12.80;5.68;;;;;;;;;;4988548;28;20022;-87
2022/04/22 01:14:54;;;;;;;10.05;5.45;;;;;;;;;;4998496;28;20397;-88
2022/04/22 01:20:22;;;;;;;12.18;5.28;;;;;;;;;;4984593;28;20101;-87
2022/04/22 01:22:48;;;;;;;9.52;5.10;;;;;;;;;;4999806;28;20116;-88
2022/04/22 01:25:13;;;;;;;9.50;4.80;;;;;;;;;;4996156;28;20218;-88
2022/04/22 01:27:38;;;;;;;10.32;5.90;;;;;;;;;;4996174;28;20852;-88
2022/04/22 01:30:06;;;;;;;11.05;5.43;;;;;;;;;;5010078;28;20028;-88
2022/04/22 01:32:31;;;;;;;9.23;4.72;;;;;;;;;;5018027;28;20022;-88
2022/04/22 01:34:57;;;;;;;12.07;5.68;;;;;;;;;;5019039;28;20094;-88
2022/04/22 01:37:22;;;;;;;11.35;6.05;;;;;;;;;;5013487;28;20002;-88
2022/04/22 01:39:47;;;;;;;18.73;6.07;;;;;;;;;;5019133;28;20041;-88
2022/04/22 01:42:12;;;;;;;14.48;5.95;;;;;;;;;;5011745;28;20061;-87
2022/04/22 01:44:37;;;;;;;13.57;5.30;;;;;;;;;;5017915;28;20017;-87
2022/04/22 01:47:03;;;;;;;10.13;5.63;;;;;;;;;;5002515;28;20030;-87
2022/04/22 01:49:31;;;;;;;12.68;5.45;;;;;;;;;;5006029;28;20113;-87
2022/04/22 01:51:56;;;;;;;14.45;5.80;;;;;;;;;;5000388;28;20022;-88
2022/04/22 01:54:22;;;;;;;10.05;6.03;;;;;;;;;;5013330;28;20050;-87
2022/04/22 01:56:47;;;;;;;9.65;5.43;;;;;;;;;;5003846;28;20019;-87
2022/04/22 01:59:13;;;;;;;10.95;5.22;;;;;;;;;;5011544;28;20102;-87
2022/04/22 02:01:38;;;;;;;10.65;5.35;;;;;;;;;;4998621;28;20111;-88
2022/04/22 02:04:03;;;;;;;9.65;5.47;;;;;;;;;;5002818;28;20050;-87
2022/04/22 02:06:28;;;;;;;13.40;6.57;;;;;;;;;;4996080;28;20014;-88
2022/04/22 02:08:54;;;;;;;15.48;6.28;;;;;;;;;;5002711;28;20021;-87
2022/04/22 02:11:19;;;;;;;14.10;5.68;;;;;;;;;;4998644;28;20450;-88
2022/04/22 02:13:45;;;;;;;9.02;5.53;;;;;;;;;;4998112;28;20021;-87
2022/04/22 02:16:10;;;;;;;11.88;6.03;;;;;;;;;;4997285;28;20056;-87
2022/04/22 02:18:37;;;;;;;9.95;5.80;;;;;;;;;;4987373;28;20601;-87
2022/04/22 02:21:06;;;;;;;9.23;5.53;;;;;;;;;;4995143;28;20030;-88
2022/04/22 02:23:31;;;;;;;10.77;5.78;;;;;;;;;;4989697;28;20029;-87
2022/04/22 02:25:57;;;;;;;10.50;6.10;;;;;;;;;;4996355;28;20018;-88
2022/04/22 02:28:35;;;;;;;12.75;6.55;;;;;;;;;;4998962;28;20025;-87
2022/04/22 02:31:07;;;;;;;10.60;6.70;;;;;;;;;;4999994;28;20554;-87
2022/04/22 02:33:33;;;;;;;11.02;5.75;;;;;;;;;;5001252;28;20117;-87
2022/04/22 02:35:59;;;;;;;10.48;6.20;;;;;;;;;;4989007;28;20121;-87
2022/04/22 02:38:25;;;;;;;10.27;6.18;;;;;;;;;;4990241;28;20390;-87
2022/04/22 02:46:18;;;;;;;14.27;6.63;;;;;;;;;;4992415;28;20057;-88
2022/04/22 02:48:43;;;;;;;11.65;6.32;;;;;;;;;;4994973;28;20450;-87
2022/04/22 02:51:10;;;;;;;11.90;7.10;;;;;;;;;;4994491;28;20015;-87
2022/04/22 02:53:35;;;;;;;11.27;6.05;;;;;;;;;;4991390;28;20022;-88
2022/04/22 02:56:00;;;;;;;13.75;7.00;;;;;;;;;;4994342;28;20029;-88
2022/04/22 02:58:25;;;;;;;10.43;5.73;;;;;;;;;;4987877;28;20026;-88
2022/04/22 03:00:51;;;;;;;8.60;5.88;;;;;;;;;;4991604;28;20266;-87
2022/04/22 03:03:16;;;;;;;15.10;7.53;;;;;;;;;;4989116;28;20018;-88
2022/04/22 03:05:41;;;;;;;12.93;7.22;;;;;;;;;;4991870;28;20018;-88
2022/04/22 03:08:08;;;;;;;14.70;7.32;;;;;;;;;;4990803;28;20022;-88
2022/04/22 03:10:33;;;;;;;11.77;6.22;;;;;;;;;;4997357;28;20029;-88
2022/04/22 03:12:58;;;;;;;12.93;6.97;;;;;;;;;;4994209;28;20022;-87
2022/04/22 03:15:25;;;;;;;11.27;6.43;;;;;;;;;;4993690;28;20501;-87
2022/04/22 03:17:51;;;;;;;16.63;7.28;;;;;;;;;;4994466;28;20014;-87
2022/04/22 03:20:16;;;;;;;13.63;7.25;;;;;;;;;;4989230;28;20489;-87
2022/04/22 03:22:41;;;;;;;11.52;7.20;;;;;;;;;;4995951;28;20022;-86
2022/04/22 03:25:07;;;;;;;11.60;6.45;;;;;;;;;;4990253;28;20037;-87
2022/04/22 03:27:32;;;;;;;18.27;7.43;;;;;;;;;;4990161;28;20041;-87
2022/04/22 03:29:57;;;;;;;16.70;6.82;;;;;;;;;;4995406;28;20074;-87
2022/04/22 03:32:23;;;;;;;17.10;6.78;;;;;;;;;;4992005;28;20014;-87
2022/04/22 03:34:48;;;;;;;10.60;6.53;;;;;;;;;;4994519;28;20030;-88
2022/04/22 03:37:13;;;;;;;10.23;5.95;;;;;;;;;;4987794;28;20287;-87
2022/04/22 03:39:38;;;;;;;16.52;6.65;;;;;;;;;;4995934;28;20120;-87
2022/04/22 03:42:04;;;;;;;13.55;6.80;;;;;;;;;;4991069;28;20113;-87
2022/04/22 03:44:30;;;;;;;18.85;7.65;;;;;;;;;;4987115;28;20077;-87
2022/04/22 03:46:55;;;;;;;12.95;6.57;;;;;;;;;;4993504;28;20011;-87
2022/04/22 03:49:20;;;;;;;11.25;6.88;;;;;;;;;;4994211;28;20085;-87
2022/04/22 03:51:45;;;;;;;9.10;5.97;;;;;;;;;;4992116;28;20054;-87
2022/04/22 03:54:11;;;;;;;11.02;6.30;;;;;;;;;;4997842;28;20144;-87
2022/04/22 03:59:20;;;;;;;14.75;6.63;;;;;;;;;;4999419;28;20101;-87
2022/04/22 04:01:45;;;;;;;11.10;6.20;;;;;;;;;;4994050;28;20022;-87
2022/04/22 04:04:11;;;;;;;12.07;6.13;;;;;;;;;;4988370;28;20661;-87
2022/04/22 04:06:36;;;;;;;13.98;6.70;;;;;;;;;;4995934;28;20112;-87
2022/04/22 04:17:14;;;;;;;12.18;6.53;;;;;;;;;;4990005;28;20033;-86
2022/04/22 04:25:08;;;;;;;11.63;6.93;;;;;;;;;;4988045;28;20033;-87
2022/04/22 04:27:36;;;;;;;12.82;7.22;;;;;;;;;;4994127;28;20026;-87
2022/04/22 04:30:01;;;;;;;13.80;7.03;;;;;;;;;;4992299;28;20024;-87
2022/04/22 04:32:26;;;;;;;15.55;8.38;;;;;;;;;;4989519;28;20026;-87
2022/04/22 04:34:51;;;;;;;19.27;7.93;;;;;;;;;;5000313;28;20033;-87
2022/04/22 04:37:17;;;;;;;15.98;7.05;;;;;;;;;;4992789;28;20025;-87
2022/04/22 04:39:42;;;;;;;20.05;8.52;;;;;;;;;;4992943;28;20030;-87
2022/04/22 04:42:08;;;;;;;17.63;8.05;;;;;;;;;;4992172;28;20014;-86
2022/04/22 04:44:33;;;;;;;13.40;7.30;;;;;;;;;;4994132;28;20030;-87
2022/04/22 04:46:59;;;;;;;12.13;7.20;;;;;;;;;;4987504;28;20097;-87
2022/04/22 04:49:27;;;;;;;15.50;7.80;;;;;;;;;;4992461;28;20030;-87
2022/04/22 04:51:52;;;;;;;18.05;8.45;;;;;;;;;;5016099;22;20316;-69
2022/04/22 04:54:17;;;;;;;16.50;8.50;;;;;;;;;;5010774;28;20473;-69
2022/04/22 04:56:43;;;;;;;16.60;8.32;;;;;;;;;;5024302;28;20030;-69
2022/04/22 04:59:08;;;;;;;21.35;7.47;;;;;;;;;;5015810;28;20022;-69
2022/04/22 05:01:33;;;;;;;16.85;7.85;;;;;;;;;;5024888;28;20032;-69
2022/04/22 05:03:58;;;;;;;15.20;8.80;;;;;;;;;;5021876;28;20088;-69
2022/04/22 05:06:23;;;;;;;25.75;10.10;;;;;;;;;;5011947;28;20939;-69
2022/04/22 05:08:48;;;;;;;16.43;8.30;;;;;;;;;;5005066;28;20335;-69
2022/04/22 05:11:14;;;;;;;14.63;7.68;;;;;;;;;;5011565;28;20279;-69
2022/04/22 05:13:39;;;;;;;13.00;7.70;;;;;;;;;;5021361;28;20264;-69
2022/04/22 05:16:04;;;;;;;20.23;8.27;;;;;;;;;;5018314;28;20029;-69
2022/04/22 05:18:29;;;;;;;15.63;8.50;;;;;;;;;;5013881;28;20621;-69
2022/04/22 05:20:55;;;;;;;25.90;8.15;;;;;;;;;;5019256;28;20026;-69
2022/04/22 05:23:20;;;;;;;26.15;8.75;;;;;;;;;;5017004;28;20608;-69
2022/04/22 05:25:45;;;;;;;21.55;8.55;;;;;;;;;;5022171;28;20121;-69
2022/04/22 05:28:11;;;;;;;23.50;8.00;;;;;;;;;;5014726;28;20579;-69
2022/04/22 05:33:20;;;;;;;15.27;8.43;;;;;;;;;;5022187;28;20275;-69
2022/04/22 05:35:45;;;;;;;21.30;8.70;;;;;;;;;;5019735;28;20033;-71
2022/04/22 05:38:10;;;;;;;16.90;9.15;;;;;;;;;;5011581;28;20367;-69
2022/04/22 05:40:37;;;;;;;22.00;10.43;;;;;;;;;;5011356;28;20084;-69
2022/04/22 05:43:03;;;;;;;17.02;9.98;;;;;;;;;;5023255;28;20030;-69
2022/04/22 05:45:28;;;;;;;21.75;10.75;;;;;;;;;;5020626;28;20060;-70
2022/04/22 05:47:56;;;;;;;24.80;11.07;;;;;;;;;;5003148;28;20072;-69
2022/04/22 05:50:21;;;;;;;20.83;10.48;;;;;;;;;;5018737;28;20329;-69
2022/04/22 05:52:47;;;;;;;22.60;10.68;;;;;;;;;;5021597;28;20025;-69
2022/04/22 05:55:15;;;;;;;28.42;10.77;;;;;;;;;;5020978;28;20059;-69
2022/04/22 05:57:40;;;;;;;23.13;10.73;;;;;;;;;;5019245;28;20079;-69
2022/04/22 06:00:07;;;;;;;30.60;11.02;;;;;;;;;;5014996;28;20026;-69
2022/04/22 06:02:32;;;;;;;21.90;11.23;;;;;;;;;;5025750;28;20026;-69
2022/04/22 06:04:57;;;;;;;22.55;10.30;;;;;;;;;;5013697;28;20045;-69
2022/04/22 06:07:23;;;;;;;21.20;10.85;;;;;;;;;;5026429;28;20013;-69
2022/04/22 06:12:32;;;;;;;29.75;11.50;;;;;;;;;;5021003;28;20033;-69
2022/04/22 06:15:02;;;;;;;20.83;11.25;;;;;;;;;;5032148;28;20030;-70
2022/04/22 06:17:28;;;;;;;29.08;11.25;;;;;;;;;;5008817;28;20481;-69
2022/04/22 06:19:53;;;;;;;23.73;11.43;;;;;;;;;;5013681;28;20041;-70
2022/04/22 06:22:18;;;;;;;30.13;13.23;;;;;;;;;;5021184;28;20684;-69
2022/04/22 06:24:43;;;;;;;27.27;12.27;;;;;;;;;;5017322;28;20034;-69
2022/04/22 06:27:09;;;;;;;26.35;13.13;;;;;;;;;;5020273;28;20260;-69
2022/04/22 06:29:34;;;;;;;30.08;14.15;;;;;;;;;;5020802;28;20307;-69
2022/04/22 06:32:00;;;;;;;34.38;14.93;;;;;;;;;;5022867;28;20097;-69
2022/04/22 06:34:25;;;;;;;25.67;12.80;;;;;;;;;;5023138;28;20026;-69
2022/04/22 06:36:50;;;;;;;28.27;14.70;;;;;;;;;;5017286;28;20049;-69
2022/04/22 06:39:15;;;;;;;28.48;13.73;;;;;;;;;;5026704;28;20453;-69
2022/04/22 06:47:09;;;;;;;27.27;13.88;;;;;;;;;;5015996;28;20028;-69
2022/04/22 06:49:34;;;;;;;29.55;14.30;;;;;;;;;;5020204;28;20009;-67
2022/04/22 06:52:00;;;;;;;25.15;13.10;;;;;;;;;;5013481;28;20419;-69
2022/04/22 06:54:26;;;;;;;26.55;13.98;;;;;;;;;;5020953;28;20026;-69
2022/04/22 06:56:51;;;;;;;29.00;14.13;;;;;;;;;;5015687;28;20436;-69
2022/04/22 06:59:19;;;;;;;30.83;14.13;;;;;;;;;;5020504;28;20014;-69
2022/04/22 07:01:45;;;;;;;33.17;14.10;;;;;;;;;;5014568;28;20014;-69
2022/04/22 07:04:10;;;;;;;27.55;15.18;;;;;;;;;;5021070;28;20084;-69
2022/04/22 07:06:36;;;;;;;28.02;14.93;;;;;;;;;;5016906;28;20022;-69
2022/04/22 07:09:01;;;;;;;26.92;13.70;;;;;;;;;;5018786;28;20452;-69
2022/04/22 07:11:30;;;;;;;32.90;15.93;;;;;;;;;;5015817;28;20019;-69
2022/04/22 07:13:56;;;;;;;28.13;14.68;;;;;;;;;;5022191;28;20104;-69
2022/04/22 07:16:22;;;;;;;28.48;13.55;;;;;;;;;;5023577;28;20014;-69
2022/04/22 07:18:47;;;;;;;31.48;15.07;;;;;;;;;;5019882;28;20390;-69
2022/04/22 07:21:13;;;;;;;26.67;14.43;;;;;;;;;;5015384;28;20094;-69
2022/04/22 07:23:38;;;;;;;30.83;14.90;;;;;;;;;;5021756;28;20622;-69
2022/04/22 07:26:09;;;;;;;26.70;14.60;;;;;;;;;;5027062;28;20020;-69
2022/04/22 07:28:35;;;;;;;24.95;14.27;;;;;;;;;;5019464;28;20025;-69
2022/04/22 07:31:01;;;;;;;30.67;16.67;;;;;;;;;;5017319;28;20014;-69
2022/04/22 07:33:26;;;;;;;30.05;14.77;;;;;;;;;;5023063;28;20072;-69
2022/04/22 07:35:52;;;;;;;29.95;14.88;;;;;;;;;;5022570;28;20026;-70
2022/04/22 07:38:18;;;;;;;28.85;13.55;;;;;;;;;;5011533;28;20478;-69
2022/04/22 07:40:48;;;;;;;21.73;13.85;;;;;;;;;;5021660;28;20382;-69
2022/04/22 07:48:41;;;;;;;24.83;13.85;;;;;;;;;;5012408;28;20025;-70
2022/04/22 07:51:07;;;;;;;20.98;13.35;;;;;;;;;;5014445;28;20013;-70
2022/04/22 07:53:32;;;;;;;21.37;12.20;;;;;;;;;;5024356;28;20393;-70
2022/04/22 07:55:58;;;;;;;14.48;10.55;;;;;;;;;;5023594;28;20105;-70
2022/04/22 07:58:23;;;;;;;15.13;10.07;;;;;;;;;;5019300;28;20014;-70
2022/04/22 08:00:48;;;;;;;16.42;9.88;;;;;;;;;;5014998;28;20064;-70
2022/04/22 08:03:15;;;;;;;16.33;9.33;;;;;;;;;;5018784;28;20033;-70
2022/04/22 08:05:40;;;;;;;14.85;9.23;;;;;;;;;;5018960;28;20029;-70
2022/04/22 08:08:06;;;;;;;15.13;10.05;;;;;;;;;;5020802;28;20068;-70
2022/04/22 08:10:34;;;;;;;12.75;8.57;;;;;;;;;;5011396;28;20021;-70
2022/04/22 08:13:00;;;;;;;11.77;8.90;;;;;;;;;;5022136;28;20017;-70
2022/04/22 08:15:25;;;;;;;11.25;7.88;;;;;;;;;;5029728;28;20023;-70
2022/04/22 08:17:50;;;;;;;13.63;7.93;;;;;;;;;;5021152;28;20026;-70
2022/04/22 08:20:15;;;;;;;20.63;7.72;;;;;;;;;;5009730;28;20030;-70
2022/04/22 08:22:44;;;;;;;12.93;8.00;;;;;;;;;;5019990;28;20030;-70
2022/04/22 08:25:09;;;;;;;9.50;7.38;;;;;;;;;;5018187;28;20333;-70
2022/04/22 08:27:34;;;;;;;15.13;7.43;;;;;;;;;;5014671;28;20434;-70
2022/04/22 08:30:00;;;;;;;9.18;7.07;;;;;;;;;;5015751;28;20064;-69
2022/04/22 08:32:25;;;;;;;9.55;7.13;;;;;;;;;;5027293;28;20017;-69
2022/04/22 08:34:51;;;;;;;16.60;7.38;;;;;;;;;;5024648;28;20017;-69
2022/04/22 08:37:17;;;;;;;13.48;7.10;;;;;;;;;;5015066;28;20025;-69
2022/04/22 08:39:42;;;;;;;10.20;7.22;;;;;;;;;;5015062;28;20408;-69
2022/04/22 08:42:08;;;;;;;10.37;7.20;;;;;;;;;;5020682;28;20045;-70
2022/04/22 08:44:36;;;;;;;14.80;6.82;;;;;;;;;;5014738;28;20108;-70
2022/04/22 08:50:06;;;;;;;12.07;6.93;;;;;;;;;;5013251;28;20024;-68
2022/04/22 08:52:33;;;;;;;11.50;6.70;;;;;;;;;;5012450;28;20029;-68
2022/04/22 08:54:59;;;;;;;10.77;5.78;;;;;;;;;;5010158;28;20122;-70
2022/04/22 08:57:25;;;;;;;10.48;6.45;;;;;;;;;;5007007;28;20470;-69
2022/04/22 08:59:50;;;;;;;10.52;6.22;;;;;;;;;;5017205;28;20079;-68
2022/04/22 09:02:19;;;;;;;9.50;5.22;;;;;;;;;;5012890;28;20108;-67
2022/04/22 09:04:44;;;;;;;12.65;6.93;;;;;;;;;;5015695;28;20364;-68
2022/04/22 09:07:18;;;;;;;8.02;5.30;;;;;;;;;;5018079;28;20017;-68
2022/04/22 09:09:49;;;;;;;10.40;4.57;;;;;;;;;;5015510;28;20025;-68
2022/04/22 09:12:15;;;;;;;8.73;4.32;;;;;;;;;;5013218;28;20080;-68
2022/04/22 09:14:47;;;;;;;9.90;5.22;;;;;;;;;;5016524;28;20030;-68
2022/04/22 09:17:17;;;;;;;10.82;6.00;;;;;;;;;;5016406;28;20057;-68
2022/04/22 09:19:44;;;;;;;9.73;5.90;;;;;;;;;;5016907;28;20050;-67
2022/04/22 09:22:09;;;;;;;12.88;5.60;;;;;;;;;;5015778;28;20021;-68
2022/04/22 09:24:45;;;;;;;18.08;5.57;;;;;;;;;;5012925;28;20030;-69
2022/04/22 09:27:10;;;;;;;12.40;6.18;;;;;;;;;;5006284;28;20017;-68
2022/04/22 09:29:41;;;;;;;10.63;5.72;;;;;;;;;;5017524;28;20112;-67
2022/04/22 09:32:09;;;;;;;10.77;6.70;;;;;;;;;;5019172;28;20089;-68
2022/04/22 09:34:36;;;;;;;18.15;6.35;;;;;;;;;;5018488;28;20036;-68
2022/04/22 09:42:47;;;;;;;10.85;6.95;;;;;;;;;;5007622;28;20040;-68
2022/04/22 09:45:12;;;;;;;12.85;6.57;;;;;;;;;;5017064;28;20029;-68
2022/04/22 09:47:39;;;;;;;11.10;6.88;;;;;;;;;;5006828;28;20378;-68
2022/04/22 09:50:08;;;;;;;14.55;6.60;;;;;;;;;;5006451;28;20010;-68
2022/04/22 09:52:36;;;;;;;11.00;6.20;;;;;;;;;;5002606;28;20053;-70
2022/04/22 09:55:08;;;;;;;14.02;6.55;;;;;;;;;;5011637;28;21329;-68
2022/04/22 09:57:50;;;;;;;10.52;6.20;;;;;;;;;;5021870;28;20473;-68
2022/04/22 10:00:15;;;;;;;13.40;7.38;;;;;;;;;;5020965;28;20026;-69
2022/04/22 10:02:41;;;;;;;12.23;6.25;;;;;;;;;;5011107;28;20028;-70
2022/04/22 10:05:07;;;;;;;13.98;6.75;;;;;;;;;;5010428;28;20054;-68
2022/04/22 10:07:32;;;;;;;9.75;5.97;;;;;;;;;;5020563;28;20014;-68
2022/04/22 10:10:01;;;;;;;11.77;6.22;;;;;;;;;;5019873;28;20018;-69
2022/04/22 10:12:27;;;;;;;12.23;7.15;;;;;;;;;;5013695;28;20018;-68
2022/04/22 10:14:55;;;;;;;10.35;6.57;;;;;;;;;;5018419;28;20065;-67
2022/04/22 10:17:20;;;;;;;12.68;5.45;;;;;;;;;;5005353;28;20032;-68
2022/04/22 10:19:45;;;;;;;10.15;6.25;;;;;;;;;;5014127;28;20093;-68
2022/04/22 10:22:11;;;;;;;9.13;5.67;;;;;;;;;;5014797;28;20049;-68
2022/04/22 10:24:37;;;;;;;9.70;6.43;;;;;;;;;;5014638;28;20312;-69
2022/04/22 10:27:04;;;;;;;11.23;6.55;;;;;;;;;;5005765;28;20014;-69
2022/04/22 10:29:30;;;;;;;16.40;6.90;;;;;;;;;;5013049;28;20022;-68
2022/04/22 10:31:56;;;;;;;11.35;6.25;;;;;;;;;;5020010;28;20012;-68
2022/04/22 10:34:27;;;;;;;9.18;5.70;;;;;;;;;;5011714;28;20030;-69
2022/04/22 10:36:56;;;;;;;9.90;6.97;;;;;;;;;;5016107;28;20028;-68
2022/04/22 10:39:34;;;;;;;12.25;6.80;;;;;;;;;;5013287;28;20038;-68
2022/04/22 10:41:59;;;;;;;10.13;6.57;;;;;;;;;;5017400;28;20052;-68
2022/04/22 10:47:15;;;;;;;10.60;7.05;;;;;;;;;;5018542;28;20033;-71
2022/04/22 10:49:44;;;;;;;10.60;7.28;;;;;;;;;;5021861;28;20020;-68
2022/04/22 10:52:10;;;;;;;12.18;7.20;;;;;;;;;;5013989;28;20040;-69
2022/04/22 10:54:54;;;;;;;10.88;6.50;;;;;;;;;;5023798;28;20104;-69
2022/04/22 10:57:23;;;;;;;9.38;5.80;;;;;;;;;;5017765;28;20029;-67
2022/04/22 11:00:06;;;;;;;10.67;5.33;;;;;;;;;;5020107;28;20021;-68
2022/04/22 11:02:33;;;;;;;11.68;7.10;;;;;;;;;;5020733;28;20379;-69
2022/04/22 11:05:34;;;;;;;12.10;6.30;;;;;;;;;;5022050;28;20415;-69
2022/04/22 11:08:01;;;;;;;7.90;5.40;;;;;;;;;;5019842;28;20529;-69
2022/04/22 11:10:27;;;;;;;14.27;6.43;;;;;;;;;;5020652;28;20069;-68
2022/04/22 11:12:54;;;;;;;6.55;4.22;;;;;;;;;;5019536;28;20025;-70
2022/04/22 11:15:37;;;;;;;8.15;6.13;;;;;;;;;;5020104;28;20112;-67
2022/04/22 11:18:03;;;;;;;10.15;6.32;;;;;;;;;;5019744;28;20498;-70
2022/04/22 11:20:28;;;;;;;8.32;5.43;;;;;;;;;;5017918;28;20049;-69
2022/04/22 11:22:56;;;;;;;8.77;6.23;;;;;;;;;;5025025;28;20025;-72
2022/04/22 11:25:25;;;;;;;8.77;5.10;;;;;;;;;;5014391;28;20025;-69
2022/04/22 11:27:52;;;;;;;6.00;3.90;;;;;;;;;;5011977;28;20030;-69
2022/04/22 11:30:17;;;;;;;8.23;4.72;;;;;;;;;;5022530;28;20045;-68
2022/04/22 11:32:45;;;;;;;9.38;5.93;;;;;;;;;;5014432;28;20053;-68
2022/04/22 11:35:13;;;;;;;8.00;6.22;;;;;;;;;;5018747;28;20029;-70
2022/04/22 11:37:38;;;;;;;11.63;5.97;;;;;;;;;;5019362;28;20109;-68
2022/04/22 11:40:08;;;;;;;7.68;4.63;;;;;;;;;;5029934;28;20104;-68
2022/04/22 11:42:34;;;;;;;;;;;;;;;;;;5019401;28;20033;-68
2022/04/22 11:45:00;;;;;;;9.73;6.15;;;;;;;;;;5029292;28;20253;-71
2022/04/22 11:47:25;;;;;;;11.20;6.45;;;;;;;;;;5015681;28;20311;-68
2022/04/22 11:49:50;;;;;;;10.97;6.83;;;;;;;;;;5019375;28;20029;-68
2022/04/22 11:52:15;;;;;;;11.43;6.03;;;;;;;;;;5020737;28;20292;-69
2022/04/22 11:54:42;;;;;;;10.17;5.27;;;;;;;;;;5017060;28;20273;-68
2022/04/22 11:57:07;;;;;;;8.95;5.10;;;;;;;;;;5014379;28;20567;-68
2022/04/22 11:59:37;;;;;;;11.43;5.95;;;;;;;;;;5014189;28;20018;-68
2022/04/22 12:10:17;;;;;;;10.20;6.10;;;;;;;;;;5012922;28;20175;-69
2022/04/22 12:12:45;;;;;;;8.27;5.35;;;;;;;;;;5021013;28;20389;-68
2022/04/22 12:15:10;;;;;;;9.00;5.80;;;;;;;;;;5010827;28;20091;-68
2022/04/22 12:17:36;;;;;;;11.40;5.67;;;;;;;;;;5021658;28;20413;-68
2022/04/22 12:20:01;;;;;;;9.52;6.15;;;;;;;;;;5013165;28;20277;-68
2022/04/22 12:22:26;;;;;;;9.87;6.13;;;;;;;;;;5019695;28;20478;-69
2022/04/22 12:25:10;;;;;;;9.52;5.80;;;;;;;;;;5012204;28;20050;-68
2022/04/22 12:27:36;;;;;;;10.48;5.95;;;;;;;;;;5017703;28;20031;-68
2022/04/22 12:30:02;;;;;;;9.00;5.93;;;;;;;;;;5008840;28;20526;-68
2022/04/22 12:32:27;;;;;;;8.82;5.70;;;;;;;;;;5022924;28;20088;-68
2022/04/22 12:35:08;;;;;;;11.35;5.47;;;;;;;;;;5011909;28;20108;-71
2022/04/22 12:37:33;;;;;;;9.18;5.88;;;;;;;;;;5012799;28;20084;-68
2022/04/22 12:40:06;;;;;;;7.77;5.17;;;;;;;;;;5021608;28;20505;-68
2022/04/22 12:42:32;;;;;;;8.65;5.45;;;;;;;;;;5018636;28;20457;-68
2022/04/22 12:53:31;;;;;;;9.05;4.90;;;;;;;;;;5024195;28;20134;-68
2022/04/22 12:56:03;;;;;;;10.20;5.30;;;;;;;;;;5017059;28;20032;-68
2022/04/22 12:58:29;;;;;;;8.57;5.40;;;;;;;;;;5011683;28;20162;-69
2022/04/22 13:00:54;;;;;;;11.73;5.00;;;;;;;;;;5018130;28;20022;-69
2022/04/22 13:03:21;;;;;;;8.95;5.70;;;;;;;;;;4999598;28;20021;-69
2022/04/22 13:05:47;;;;;;;10.65;5.65;;;;;;;;;;5019224;28;20045;-68
2022/04/22 13:08:14;;;;;;;9.32;5.68;;;;;;;;;;5017097;28;20045;-69
2022/04/22 13:10:41;;;;;;;11.60;6.05;;;;;;;;;;5018738;28;20014;-68
2022/04/22 13:13:07;;;;;;;11.30;6.03;;;;;;;;;;5013292;28;20140;-68
2022/04/22 13:15:32;;;;;;;9.38;6.18;;;;;;;;;;5013469;28;20100;-70
2022/04/22 13:17:57;;;;;;;11.87;6.40;;;;;;;;;;5017080;28;20060;-70
2022/04/22 13:20:22;;;;;;;13.43;7.00;;;;;;;;;;5015548;28;20810;-69
2022/04/22 13:22:48;;;;;;;10.88;6.07;;;;;;;;;;5014223;28;20033;-68
2022/04/22 13:25:13;;;;;;;8.80;5.35;;;;;;;;;;5020624;28;20018;-68
2022/04/22 13:27:39;;;;;;;12.80;5.75;;;;;;;;;;5016052;28;20462;-68
2022/04/22 13:30:05;;;;;;;8.25;5.80;;;;;;;;;;5019677;28;20374;-68
2022/04/22 13:32:30;;;;;;;10.70;5.85;;;;;;;;;;5018204;28;20018;-69
2022/04/22 13:34:55;;;;;;;14.07;5.37;;;;;;;;;;5018076;28;20022;-68
2022/04/22 13:37:21;;;;;;;8.32;5.40;;;;;;;;;;5016940;28;20350;-69
2022/04/22 13:39:46;;;;;;;9.00;6.10;;;;;;;;;;5015339;28;20033;-68
2022/04/22 13:42:11;;;;;;;9.35;5.35;;;;;;;;;;5024242;28;20310;-69
2022/04/22 13:52:48;;;;;;;11.68;6.60;;;;;;;;;;5016497;28;20033;-68
2022/04/22 13:55:13;;;;;;;10.43;5.27;;;;;;;;;;5022180;28;20018;-68
2022/04/22 13:57:39;;;;;;;10.57;5.93;;;;;;;;;;5019073;28;20740;-68
2022/04/22 14:00:04;;;;;;;18.38;7.70;;;;;;;;;;5012432;28;20010;-70
2022/04/22 14:02:30;;;;;;;25.52;8.57;;;;;;;;;;5025168;28;20494;-69
2022/04/22 14:04:55;;;;;;;13.15;6.32;;;;;;;;;;5018759;28;20026;-68
2022/04/22 14:07:21;;;;;;;12.27;5.82;;;;;;;;;;5029122;28;20026;-68
2022/04/22 14:09:46;;;;;;;8.27;5.57;;;;;;;;;;5020186;28;20026;-68
2022/04/22 14:12:11;;;;;;;7.67;4.90;;;;;;;;;;5025059;28;20385;-68
2022/04/22 14:14:39;;;;;;;9.38;5.40;;;;;;;;;;5011100;28;20275;-68
2022/04/22 14:17:06;;;;;;;11.63;5.50;;;;;;;;;;5025132;28;20047;-68
2022/04/22 14:19:31;;;;;;;9.20;4.70;;;;;;;;;;5021479;28;20035;-68
2022/04/22 14:21:59;;;;;;;7.03;5.18;;;;;;;;;;5025026;28;20448;-69
2022/04/22 14:24:24;;;;;;;8.73;5.22;;;;;;;;;;5029177;28;20612;-69
2022/04/22 14:26:52;;;;;;;11.32;5.65;;;;;;;;;;5017734;28;20018;-68
2022/04/22 14:29:17;;;;;;;10.25;4.97;;;;;;;;;;5015099;28;20014;-69
2022/04/22 14:31:42;;;;;;;13.35;4.97;;;;;;;;;;5004034;28;20021;-70
2022/04/22 14:34:08;;;;;;;8.73;4.60;;;;;;;;;;5012769;28;20041;-68
2022/04/22 14:36:33;;;;;;;6.13;4.97;;;;;;;;;;5018743;28;20261;-71
2022/04/22 14:38:58;;;;;;;10.53;5.37;;;;;;;;;;5021348;28;20034;-68
2022/04/22 14:41:24;;;;;;;8.25;4.95;;;;;;;;;;5033213;28;20283;-69
2022/04/22 14:43:49;;;;;;;11.52;4.88;;;;;;;;;;5019256;28;20025;-70
2022/04/22 14:46:16;;;;;;;7.67;4.90;;;;;;;;;;5019688;28;20593;-69
2022/04/22 14:48:42;;;;;;;8.18;4.93;;;;;;;;;;5021622;28;20080;-70
2022/04/22 14:51:07;;;;;;;8.50;5.03;;;;;;;;;;5030763;28;20033;-70
2022/04/22 14:53:32;;;;;;;7.23;4.00;;;;;;;;;;5001218;28;20582;-70
2022/04/22 14:55:59;;;;;;;10.82;4.82;;;;;;;;;;5016172;28;20275;-70
2022/04/22 14:58:24;;;;;;;9.63;5.93;;;;;;;;;;5018927;28;20021;-70
2022/04/22 15:00:49;;;;;;;8.10;5.25;;;;;;;;;;5019495;28;20020;-70
2022/04/22 15:03:15;;;;;;;13.38;6.28;;;;;;;;;;5019498;28;20041;-70
2022/04/22 15:05:40;;;;;;;8.43;5.85;;;;;;;;;;5020205;28;20034;-70
2022/04/22 15:08:05;;;;;;;12.98;5.53;;;;;;;;;;5014927;28;20018;-70
2022/04/22 15:10:32;;;;;;;8.70;4.25;;;;;;;;;;5015654;28;20121;-69
2022/04/22 15:12:57;;;;;;;12.20;6.07;;;;;;;;;;5019844;28;20029;-69
2022/04/22 15:15:22;;;;;;;9.43;5.93;;;;;;;;;;5016371;28;20026;-69
2022/04/22 15:26:00;;;;;;;8.73;5.95;;;;;;;;;;5019319;28;20036;-70
2022/04/22 15:28:25;;;;;;;12.97;6.77;;;;;;;;;;5024419;28;20018;-70
2022/04/22 15:31:06;;;;;;;13.63;7.53;;;;;;;;;;5014986;28;20619;-70
2022/04/22 15:33:35;;;;;;;13.30;6.70;;;;;;;;;;5013418;28;20493;-70
2022/04/22 15:36:01;;;;;;;13.88;7.65;;;;;;;;;;5004534;28;20029;-70
2022/04/22 15:38:26;;;;;;;9.23;6.50;;;;;;;;;;5019428;28;20017;-70
2022/04/22 15:40:52;;;;;;;12.00;7.20;;;;;;;;;;5008202;28;20387;-70
2022/04/22 15:43:17;;;;;;;12.83;7.07;;;;;;;;;;5015324;28;20167;-70
2022/04/22 15:45:42;;;;;;;11.50;7.05;;;;;;;;;;5018957;28;20115;-70
2022/04/22 15:48:08;;;;;;;10.98;6.55;;;;;;;;;;5022147;28;20018;-69
2022/04/22 15:50:33;;;;;;;10.37;6.23;;;;;;;;;;5021031;28;20067;-69
2022/04/22 15:52:59;;;;;;;13.98;7.85;;;;;;;;;;5019019;28;20482;-69
2022/04/22 15:55:24;;;;;;;12.43;7.53;;;;;;;;;;5018637;28;20021;-69
2022/04/22 15:57:49;;;;;;;13.75;6.85;;;;;;;;;;5012578;28;20284;-70
2022/04/22 16:00:15;;;;;;;17.25;7.32;;;;;;;;;;5018545;28;20064;-70